Terminal Aerodrome Forecast
Issued by NWS Hastings, NE

Home | Current Version | Previous Version | Text Only | Print | Product List | Glossary On
Versions: 1 2 3 4 5 6 7 8 9 10 11 12 13 14 15 16 17 18 19 20
603
FTUS45 KGID 240111 AAA
TAFEAR
TAF AMD
KEAR 240111Z 2401/2424 04008KT P6SM BKN008
     FM240600 07007KT P6SM BKN006
     FM241000 07007KT P6SM -SN OVC008
     FM241200 07007KT 2SM -SN BR OVC008
     FM241300 06007KT 2SM -SN BR OVC003
     FM241800 VRB05KT P6SM OVC008
     FM242200 29009KT P6SM SCT045=

USA.gov is the U.S. government's official web portal to all federal, state and local government web resources and services.